Date,TemperatureHighF,TemperatureAvgF,TemperatureLowF,DewpointHighF,DewpointAvgF,DewpointLowF,HumidityHigh,HumidityAvg,HumidityLow,PressureMaxIn,PressureMinIn,WindSpeedMaxMPH,WindSpeedAvgMPH,GustSpeedMaxMPH,PrecipitationSumIn
2013-1-1,37,27,19,21,15,11,83,61,41,30.41,30.14,12,2,12,0.00
2013-1-2,36,23,13,13,10,6,80,59,28,30.47,30.32,8,1,11,0.00
2013-1-3,38,25,15,16,11,6,72,57,36,30.56,30.43,15,1,15,0.00
2013-1-4,35,21,11,12,6,0,71,52,29,30.58,30.40,9,2,9,0.00
2013-1-5,42,27,13,10,6,4,69,43,21,30.61,30.47,7,1,7,0.00
2013-1-6,44,28,13,13,8,5,73,46,23,30.58,30.28,8,0,8,0.00
2013-1-7,49,36,27,18,14,10,55,41,27,30.28,30.01,10,1,10,0.00
2013-1-8,50,35,23,18,14,10,64,44,20,30.34,30.02,16,3,16,0.00
2013-1-9,53,36,23,16,14,12,64,42,21,30.53,30.22,9,2,9,0.00
2013-1-10,48,35,22,23,14,11,66,45,25,30.22,29.80,11,1,11,0.00
2013-1-11,43,34,20,25,6,-10,62,33,17,29.97,29.66,20,4,20,0.00
2013-1-12,34,21,11,2,-4,-12,53,34,17,30.24,29.97,12,1,12,0.00
2013-1-13,32,18,7,4,-2,-4,61,43,24,30.35,30.18,5,1,11,0.00
2013-1-14,29,21,14,24,11,0,87,66,46,30.33,30.15,15,1,15,0.01
2013-1-15,26,16,6,7,2,0,81,56,35,30.68,30.33,16,2,16,0.00
2013-1-16,40,24,9,14,8,2,74,50,33,30.74,30.56,10,1,10,0.00
2013-1-17,50,31,17,17,14,10,74,52,25,30.73,30.54,6,1,6,0.00
2013-1-18,52,34,19,20,17,14,83,53,26,30.55,30.34,6,0,6,0.00
2013-1-19,54,37,24,20,17,12,70,48,19,30.48,30.34,9,1,9,0.00
2013-1-20,54,36,19,18,14,9,78,45,18,30.44,30.26,9,1,9,0.00
2013-1-21,55,37,19,18,13,10,68,39,19,30.42,30.26,11,2,11,0.00
2013-1-22,58,40,22,18,14,7,74,40,14,30.41,30.27,10,0,10,0.00
2013-1-23,60,39,22,15,11,6,66,36,12,30.46,30.31,7,1,7,0.00
2013-1-24,62,44,25,35,17,10,62,37,15,30.39,30.20,8,1,8,0.00
2013-1-25,58,48,36,39,35,29,78,61,48,30.27,30.10,6,0,6,0.00
2013-1-26,56,47,40,50,40,34,91,77,61,30.12,29.81,17,1,17,0.11
2013-1-27,60,49,40,41,37,32,88,68,36,29.95,29.82,14,2,14,0.00
2013-1-28,56,45,37,39,32,18,87,63,35,29.86,29.65,20,4,20,0.02
2013-1-29,37,32,27,22,14,2,71,48,25,30.09,29.69,22,4,22,0.00
2013-1-30,42,32,22,17,14,7,67,49,28,30.36,30.08,19,3,19,0.00
2013-1-31,54,37,22,24,19,16,80,52,23,30.44,30.30,13,1,13,0.00
2013-2-1,56,39,23,23,20,15,82,50,23,30.35,30.22,14,2,14,0.00
2013-2-2,57,42,28,23,20,17,71,44,21,30.42,30.29,10,1,10,0.00
2013-2-3,52,41,29,30,21,16,65,46,24,30.34,30.01,6,0,6,0.00
2013-2-4,58,45,33,30,25,17,80,48,21,30.12,29.96,14,2,14,0.00
2013-2-5,60,44,29,24,19,14,71,41,17,30.11,29.96,9,1,9,0.00
2013-2-6,62,44,26,28,21,16,67,42,25,30.02,29.84,12,1,12,0.00
2013-2-7,57,44,30,27,22,12,73,44,17,30.15,29.99,14,1,14,0.00
2013-2-8,58,46,32,24,20,17,61,39,24,30.11,29.72,22,4,22,0.00
2013-2-9,50,38,30,24,14,4,59,39,20,29.89,29.59,26,4,26,0.00
2013-2-10,31,30,30,18,17,16,61,59,56,29.91,29.89,11,3,11,0.00
2013-2-11,47,33,20,22,16,1,86,56,15,30.15,29.99,17,2,17,0.00
2013-2-12,43,33,24,23,13,5,74,47,21,30.28,30.04,15,3,15,0.00
2013-2-13,50,36,21,18,13,10,64,41,23,30.31,30.13,20,3,20,0.00
2013-2-14,53,40,25,22,17,13,70,43,21,30.26,30.08,17,3,17,0.00
2013-2-15,53,40,26,24,13,0,77,40,11,30.42,30.24,24,2,24,0.00
2013-2-16,59,40,23,12,7,-4,57,29,9,30.50,30.17,11,1,11,0.00
2013-2-17,61,42,22,7,3,-4,50,23,7,30.19,29.72,20,2,20,0.00
2013-2-18,54,42,30,18,-4,-28,48,18,3,30.08,29.81,19,3,19,0.00
2013-2-19,61,42,24,35,6,-11,66,26,8,30.10,29.73,27,4,27,0.00
2013-2-20,51,44,34,35,28,13,76,57,23,29.74,29.42,23,4,23,0.00
2013-2-21,47,36,28,28,24,19,93,65,37,29.95,29.51,15,3,15,0.17
2013-2-22,44,35,28,25,21,12,76,59,30,30.12,29.93,14,3,14,0.00
2013-2-23,49,35,20,18,14,9,74,44,23,30.17,29.78,15,2,15,0.00
2013-2-24,42,35,28,26,16,4,90,49,23,29.95,29.66,24,4,24,0.00
2013-2-25,50,36,25,25,12,-1,87,43,14,30.18,29.95,13,2,13,0.02
2013-2-26,49,35,23,17,7,-11,70,34,11,30.17,29.86,22,3,22,0.00
2013-2-27,46,34,20,11,6,0,62,33,15,30.38,30.17,12,1,12,0.00
2013-2-28,54,39,25,9,4,-6,41,25,8,30.43,30.28,12,2,15,0.00
2013-3-1,60,44,34,21,13,5,41,28,17,30.42,30.23,15,3,15,0.00
2013-3-2,64,44,33,24,21,20,59,43,20,30.40,30.23,8,1,8,0.00
2013-3-8,51,45,40,40,35,-100,85,71,65,29.73,29.63,18,-8,21,19.00
2013-3-9,47,40,33,35,25,15,80,57,31,29.99,29.73,15,2,15,0.00
2013-3-10,54,41,31,29,24,13,84,54,24,30.18,29.99,12,1,13,0.00
2013-3-11,64,47,29,20,17,4,67,34,10,30.21,29.97,17,2,19,0.00
2013-3-12,68,52,35,26,22,19,58,33,17,30.18,30.02,12,1,13,0.00
2013-3-13,72,53,34,27,23,17,67,35,15,30.29,30.09,14,1,14,0.00
2013-3-14,75,57,39,24,18,8,51,26,8,30.25,30.05,10,1,11,0.00
2013-3-15,79,58,37,21,15,2,47,23,6,30.09,29.79,9,1,10,0.00
2013-3-16,74,60,47,34,20,13,46,22,12,29.80,29.56,15,3,19,0.00
2013-3-17,70,55,42,38,20,-25,68,35,2,29.73,29.54,17,2,20,0.00
2013-3-18,69,53,36,12,6,-2,35,17,6,29.91,29.73,19,2,22,0.00
2013-3-19,65,51,40,18,11,4,36,21,12,30.11,29.89,14,1,17,0.00
2013-3-20,64,50,32,26,18,14,51,30,16,30.21,29.80,12,2,12,0.00
2013-3-21,73,60,48,32,17,-14,42,23,3,29.80,29.46,18,3,19,0.00
2013-3-22,68,52,35,27,13,3,42,23,9,29.70,29.49,19,2,23,0.00
2013-3-23,52,42,32,28,2,-20,56,23,6,30.09,29.60,26,5,26,0.00
2013-3-24,55,40,24,0,-6,-14,27,15,8,30.20,29.94,19,3,19,0.00
2013-3-25,57,41,25,11,6,-1,47,25,14,30.25,30.07,13,1,14,0.00
2013-3-26,67,49,30,12,9,7,43,22,10,30.21,29.89,19,3,24,0.00
2013-3-27,72,59,43,15,11,4,32,16,8,29.98,29.80,12,2,13,0.00
2013-3-28,73,62,46,24,15,4,31,17,8,29.96,29.82,17,2,18,0.00
2013-3-29,76,60,44,25,20,11,45,23,9,30.02,29.85,11,1,11,0.00
2013-3-30,73,59,40,26,20,14,45,24,11,30.03,29.82,13,1,14,0.00
2013-3-31,74,62,50,33,28,24,47,29,17,29.93,29.74,18,2,18,0.00
2013-4-1,76,63,46,30,18,-1,45,21,6,29.88,29.64,15,1,16,0.00
2013-4-2,68,57,45,29,16,-6,42,21,6,29.84,29.61,21,2,22,0.00
2013-4-3,68,53,39,33,26,16,68,40,15,30.03,29.84,13,2,16,0.00
2013-4-4,74,57,40,29,19,4,59,28,7,30.14,29.92,9,1,10,0.00
2013-4-5,78,64,50,22,13,6,30,15,7,29.95,29.59,18,3,19,0.00
2013-4-6,77,64,49,25,20,11,38,20,8,29.79,29.59,17,2,19,0.00
2013-4-7,78,65,49,26,19,10,40,19,8,29.69,29.50,12,2,13,0.00
2013-4-8,78,65,50,29,21,8,40,20,7,29.54,29.11,28,5,30,0.00
2013-4-9,55,46,40,38,32,26,84,59,36,29.78,29.16,18,4,19,0.09
2013-4-10,50,42,36,36,27,20,86,55,36,29.97,29.78,15,2,17,0.00
2013-4-11,66,49,31,30,24,17,69,40,21,30.00,29.77,22,3,22,0.00
2013-4-12,71,58,42,33,29,20,66,35,17,29.83,29.66,17,1,17,0.00
2013-4-13,77,60,40,30,21,9,57,27,9,29.78,29.48,21,2,21,0.00
2013-4-14,80,66,56,25,22,15,28,19,9,29.52,29.35,22,4,28,0.00
2013-4-15,83,64,46,26,19,3,42,20,5,29.56,29.33,19,3,19,0.00
2013-4-16,82,67,52,25,13,-16,28,15,2,29.59,29.37,26,6,27,0.00
2013-4-17,65,54,40,29,19,6,41,26,11,29.85,29.42,25,3,25,0.00
2013-4-18,52,42,32,18,6,-4,40,24,11,30.24,29.85,20,3,23,0.00
2013-4-19,64,46,28,9,4,-4,41,19,7,30.34,29.95,11,1,11,0.00
2013-4-20,71,57,44,20,6,-7,26,13,9,29.96,29.71,19,3,20,0.00
2013-4-21,76,58,37,24,17,-2,55,25,5,30.03,29.81,14,1,15,0.00
2013-4-22,84,66,45,29,13,-1,45,16,5,29.87,29.55,19,2,19,0.00
2013-4-23,70,58,44,31,19,-24,52,25,3,29.93,29.59,24,4,24,0.00
2013-4-24,70,50,30,23,17,12,60,32,11,30.12,29.93,10,1,10,0.00
2013-4-25,78,68,53,30,24,11,36,20,10,29.98,29.64,22,-1,23,0.00
2013-4-26,78,62,46,32,19,-9,52,25,3,30.01,29.83,12,2,13,0.00
2013-4-27,79,63,47,29,14,-19,46,22,2,30.06,29.84,13,1,13,0.00
2013-4-28,82,64,42,17,5,-29,32,13,2,29.93,29.66,10,1,11,0.00
2013-4-29,87,68,45,26,13,4,35,14,5,29.76,29.49,15,1,15,0.00
2013-4-30,88,72,55,23,13,-3,26,12,4,29.60,29.42,24,2,24,0.00
2013-5-1,86,70,51,29,10,-15,43,12,4,29.92,29.53,18,3,20,0.00
2013-5-2,63,50,38,29,17,9,55,30,13,30.33,29.91,22,4,22,0.00
2013-5-3,68,52,35,17,13,4,43,23,9,30.34,29.91,13,2,13,0.00
2013-5-4,78,61,40,18,9,0,39,16,5,29.93,29.69,28,4,28,0.00
2013-5-5,75,62,50,32,19,6,26,19,12,29.94,29.78,33,7,34,0.00
2013-5-6,71,63,54,40,26,15,49,26,17,29.83,29.73,17,3,19,0.00
2013-5-7,78,63,47,39,30,20,64,32,12,29.86,29.64,21,2,21,0.00
2013-5-8,74,62,46,36,25,12,62,29,10,29.84,29.71,24,2,24,0.00
2013-5-9,74,61,47,37,25,18,47,27,14,29.93,29.76,15,2,15,0.00
2013-5-10,69,59,50,44,37,32,67,45,27,30.13,29.90,16,3,18,0.00
2013-5-11,74,59,46,44,38,27,86,50,18,30.19,30.11,22,2,23,0.00
2013-5-12,82,63,43,37,33,24,72,37,13,30.20,29.94,11,1,12,0.00
2013-5-13,85,68,50,38,30,24,54,27,12,30.08,29.85,12,2,12,0.00
2013-5-14,88,70,53,52,28,15,70,25,9,29.90,29.62,15,2,16,0.05
2013-5-15,90,72,60,50,38,20,64,34,10,29.73,29.54,16,1,19,0.05
2013-5-16,88,73,55,28,18,-3,32,15,3,29.75,29.54,15,2,18,0.00
2013-5-17,88,72,53,33,20,7,37,16,6,29.75,29.54,26,2,30,0.00
2013-5-18,79,69,53,30,21,9,37,17,9,29.73,29.52,21,2,21,0.00
2013-5-19,77,66,56,36,30,16,47,28,11,29.71,29.60,22,3,22,0.00
2013-5-20,79,64,50,36,27,-4,58,30,4,29.79,29.61,26,3,26,0.00
2013-5-21,83,65,48,36,29,17,58,31,9,29.87,29.64,13,1,16,0.00
2013-5-22,88,72,51,34,19,5,43,18,5,29.72,29.52,14,2,15,0.00
2013-5-23,93,76,55,50,18,1,42,14,4,29.71,29.49,27,3,27,0.00
2013-5-24,89,76,62,50,32,15,55,25,7,29.77,29.58,17,3,18,0.00
2013-5-25,93,75,54,40,20,-3,39,15,3,29.81,29.55,15,2,17,0.00
2013-5-26,90,74,55,31,12,-25,37,12,1,29.77,29.56,16,2,16,0.00
2013-5-27,86,71,56,31,13,-5,34,12,3,29.73,29.54,15,1,15,0.00
2013-5-28,86,71,50,27,14,-13,37,14,2,29.61,29.34,14,2,14,0.00
2013-5-29,84,72,59,38,22,-2,39,17,4,29.48,29.33,16,2,18,0.00
2013-5-30,90,73,51,31,21,13,36,16,7,29.64,29.47,19,2,23,0.00
2013-5-31,89,77,63,39,24,-2,38,17,5,29.67,29.51,23,3,23,0.00
2013-6-1,89,72,51,30,8,-27,29,11,1,29.82,29.67,20,2,20,0.00
2013-6-2,89,74,63,47,36,28,44,25,16,29.82,29.54,27,4,28,0.00
2013-6-3,94,78,64,51,36,5,55,29,5,29.71,29.47,16,2,17,0.00
2013-6-4,94,79,57,33,18,-9,34,12,2,29.70,29.50,17,2,19,0.00
2013-6-5,91,78,65,45,32,13,34,20,7,29.66,29.49,17,2,19,0.00
2013-6-6,91,73,55,45,39,22,60,32,10,29.75,29.58,27,3,31,0.00
2013-6-7,92,76,59,52,42,22,72,36,9,29.75,29.47,27,2,28,0.00
2013-6-8,98,79,58,46,35,17,63,26,6,29.62,29.42,17,2,19,0.00
2013-6-9,97,82,68,48,43,31,48,27,12,29.67,29.52,23,3,27,0.00
2013-6-10,102,87,71,49,35,16,44,21,5,29.67,29.47,25,3,25,0.00
2013-6-11,103,86,68,37,22,-4,28,12,2,29.67,29.48,13,1,15,0.00
2013-6-12,100,82,61,37,24,5,34,14,4,29.75,29.59,9,1,9,0.00
2013-6-13,99,81,63,57,38,28,53,24,9,29.72,29.54,24,2,29,0.04
2013-6-14,94,78,69,68,50,40,76,39,16,29.66,29.49,25,3,27,0.16
2013-6-15,94,78,60,55,43,26,77,36,10,29.79,29.64,20,2,20,0.00
2013-6-16,94,79,64,49,40,31,54,27,12,29.79,29.63,20,2,20,0.00
2013-6-17,94,79,62,49,40,29,52,29,10,29.80,29.58,30,2,30,0.00
2013-6-18,93,79,65,53,46,34,62,36,14,29.79,29.52,30,6,32,0.00
2013-6-19,99,82,63,98,23,-21,44,19,1,29.63,29.40,18,3,20,0.00
2013-6-20,97,80,58,97,22,-25,35,11,1,29.67,29.47,15,2,17,0.00
2013-6-21,97,80,62,47,19,-21,46,15,1,29.70,29.49,21,2,21,0.00
2013-6-22,95,79,59,31,13,-8,33,11,2,29.69,29.49,16,2,17,0.00
2013-6-23,94,79,57,28,13,-2,31,10,3,29.68,29.46,15,2,15,0.00
2013-6-24,97,80,62,34,14,-22,31,11,2,29.66,29.49,17,2,17,0.00
2013-6-25,96,80,61,32,20,8,30,12,4,29.73,29.58,11,1,11,0.00
2013-6-26,101,82,61,39,26,16,34,15,5,29.79,29.62,11,1,12,0.00
2013-6-27,107,88,64,39,27,9,36,14,3,29.78,29.61,16,2,16,0.00
2013-6-28,98,85,76,50,42,31,37,23,12,29.79,29.65,28,4,29,0.00
2013-6-29,99,82,65,50,44,33,58,30,11,29.80,29.60,27,2,29,0.00
2013-6-30,101,81,67,52,46,34,51,32,10,29.82,29.54,26,3,29,0.00
2013-7-1,90,73,61,55,51,45,79,49,23,29.91,29.73,29,4,29,0.01
2013-7-2,89,73,62,55,48,43,61,43,22,29.96,29.70,23,3,23,0.00
2013-7-3,89,72,58,59,53,43,85,56,23,29.90,29.60,21,2,22,0.09
2013-7-4,92,77,61,58,52,43,80,45,19,29.72,29.54,24,2,24,0.04
2013-7-5,95,76,67,67,56,48,93,52,21,29.67,29.45,19,2,19,0.51
2013-7-6,93,77,64,65,56,41,94,55,17,29.72,29.53,18,2,18,0.08
2013-7-7,96,80,64,61,55,45,86,48,20,29.72,29.57,14,2,16,0.01
2013-7-8,97,80,66,65,55,50,89,46,21,29.83,29.63,20,2,20,0.41
2013-7-9,97,79,66,63,58,49,89,53,22,29.85,29.70,21,2,23,0.00
2013-7-10,96,83,69,59,54,47,71,39,20,29.80,29.61,17,2,17,0.00
2013-7-11,89,78,69,62,57,50,76,49,28,29.81,29.61,20,3,20,0.00
2013-7-12,93,80,66,61,56,49,76,47,23,29.75,29.59,18,2,18,0.00
2013-7-13,95,80,66,63,56,46,90,49,20,29.76,29.62,19,2,20,0.21
2013-7-14,99,79,66,63,55,46,89,48,19,29.77,29.50,31,2,31,0.12
2013-7-15,74,69,66,63,56,50,88,66,49,29.90,29.68,22,4,23,0.01
2013-7-16,84,70,61,53,49,46,71,48,28,29.97,29.83,25,4,27,0.00
2013-7-17,83,71,59,56,52,47,84,54,30,30.05,29.91,19,4,20,0.03
2013-7-18,86,74,61,56,54,51,76,51,33,29.99,29.77,14,2,14,0.00
2013-7-19,89,72,64,65,60,55,88,67,35,29.84,29.65,23,2,24,0.25
2013-7-20,88,76,66,63,59,53,86,58,34,29.77,29.59,12,2,13,0.00
2013-7-21,91,78,68,60,56,46,74,49,23,29.72,29.56,18,2,18,0.00
2013-7-22,95,80,66,58,52,43,77,43,18,29.72,29.56,12,1,13,0.00
2013-7-23,98,82,66,57,51,42,66,37,18,29.70,29.52,14,2,14,0.00
2013-7-24,92,76,68,58,53,47,70,47,26,29.84,29.63,27,2,27,0.00
2013-7-25,88,75,65,60,58,56,81,59,36,29.90,29.74,12,2,12,0.00
2013-7-26,89,75,62,64,60,53,96,64,33,29.94,29.78,44,2,44,0.15
2013-7-27,84,71,60,61,58,53,92,65,38,30.00,29.73,8,2,12,0.00
2013-7-28,89,75,67,62,58,49,80,58,28,29.75,29.58,14,2,14,0.01
2013-7-29,93,78,63,62,54,43,90,50,19,29.81,29.69,15,1,16,0.00
2013-7-30,95,80,63,54,49,42,69,37,17,29.93,29.77,9,1,9,0.00
2013-7-31,96,82,68,54,49,38,60,35,14,29.90,29.72,13,2,15,0.00
2013-8-1,88,77,68,63,56,51,85,50,31,29.86,29.71,13,2,18,0.05
2013-8-2,93,75,64,64,59,50,91,62,24,29.82,29.66,17,1,18,0.06
2013-8-3,92,77,62,61,56,48,91,54,24,29.84,29.71,10,1,12,0.01
2013-8-4,95,79,67,63,56,44,83,48,20,29.80,29.64,16,2,16,0.14
2013-8-5,92,76,63,62,58,52,88,57,29,29.83,29.67,12,1,12,0.00
2013-8-6,89,76,65,56,53,46,67,47,24,29.76,29.65,15,2,16,0.00
2013-8-7,84,73,61,58,54,51,81,54,34,29.78,29.69,17,2,17,0.00
2013-8-8,89,75,63,57,50,37,78,46,19,29.78,29.68,15,2,18,0.00
2013-8-9,91,75,61,52,47,35,65,39,15,29.88,29.75,10,2,10,0.00
2013-8-10,86,72,63,56,51,43,69,50,30,30.02,29.82,20,3,20,0.02
2013-8-11,85,71,61,57,54,46,86,58,27,30.03,29.83,12,2,12,0.01
2013-8-12,86,73,65,59,56,51,75,55,32,29.93,29.77,14,2,14,0.00
2013-8-13,89,75,61,56,51,32,80,47,15,29.91,29.76,13,1,14,0.00
2013-8-14,90,76,62,59,52,39,79,46,19,29.87,29.72,22,2,22,0.00
2013-8-15,93,77,62,56,49,32,77,43,12,29.89,29.73,11,2,11,0.00
2013-8-16,98,80,63,52,45,28,62,33,9,29.86,29.70,14,2,17,0.00
2013-8-17,98,83,72,58,46,36,52,29,12,29.81,29.62,15,2,15,0.03
2013-8-18,94,81,68,55,49,42,59,36,17,29.81,29.65,15,1,17,0.00
2013-8-19,97,79,66,58,51,43,67,40,17,29.80,29.62,17,2,18,0.00
2013-8-20,92,75,63,65,56,49,83,56,24,29.82,29.66,20,1,22,0.12
2013-8-21,89,76,62,61,55,47,88,51,27,29.83,29.70,18,1,18,0.00
2013-8-22,92,79,64,54,48,40,66,37,21,29.85,29.66,13,1,14,0.00
2013-8-23,88,75,59,51,46,38,60,37,25,29.82,29.67,17,2,18,0.00
2013-8-24,86,75,67,64,55,49,89,52,29,29.86,29.72,24,2,24,0.07
2013-8-25,86,73,66,65,60,54,83,64,35,29.93,29.83,17,1,19,0.06
2013-8-26,89,76,62,63,56,47,91,55,30,29.97,29.80,16,2,16,0.00
2013-8-27,89,77,62,55,51,46,73,43,26,29.87,29.69,13,2,13,0.00
2013-8-28,89,76,64,56,52,48,68,45,27,29.87,29.74,14,2,14,0.00
2013-8-29,87,76,69,59,55,52,63,49,31,29.91,29.80,17,2,17,0.00
2013-8-30,93,79,66,62,55,44,82,48,20,29.88,29.70,11,2,11,0.00
2013-8-31,95,81,66,58,51,43,72,39,19,29.77,29.58,10,1,10,0.00
2013-9-1,97,78,66,63,52,47,87,43,21,29.82,29.61,26,2,30,0.12
2013-9-2,90,77,66,64,56,49,88,52,27,29.85,29.71,15,1,15,0.00
2013-9-3,93,77,65,63,56,47,81,53,23,29.86,29.69,20,1,24,0.45
2013-9-4,92,78,63,62,49,33,83,43,16,29.93,29.78,13,2,13,0.00
2013-9-5,91,77,58,47,41,34,65,31,16,29.94,29.80,11,1,11,0.00
2013-9-6,91,76,58,48,42,37,60,32,17,29.93,29.73,11,1,12,0.00
2013-9-7,90,75,61,64,51,44,67,45,26,29.85,29.68,15,1,17,0.04
2013-9-8,90,75,60,56,50,46,77,45,24,29.79,29.58,15,1,15,0.00
2013-9-9,89,75,61,56,52,43,78,47,24,29.69,29.53,16,2,16,0.00
2013-9-10,74,66,62,63,58,53,96,78,53,29.85,29.65,14,1,15,0.71
2013-9-11,82,69,62,64,59,49,98,73,33,29.92,29.79,21,2,21,0.02
2013-9-12,73,66,61,66,60,56,95,83,69,29.88,29.77,14,2,14,0.55
2013-9-13,74,64,59,62,60,56,97,86,56,29.88,29.75,12,1,13,0.37
2013-9-14,75,64,58,61,58,54,97,82,53,29.85,29.73,15,1,15,0.98
2013-9-15,79,66,57,61,56,49,97,71,38,29.91,29.81,13,1,14,0.19
2013-9-16,79,68,56,57,54,50,94,66,39,29.99,29.84,12,1,13,0.00
2013-9-17,82,70,57,59,56,51,93,64,37,29.91,29.68,11,2,13,0.00
2013-9-18,80,69,65,60,59,57,80,71,46,29.74,29.67,13,2,13,0.00
2013-9-19,84,75,61,52,49,44,67,43,25,29.71,29.63,8,1,9,0.06
2013-9-20,82,70,59,54,52,44,73,53,36,29.85,29.71,24,3,24,0.00
2013-9-21,80,68,55,57,53,50,92,63,37,29.87,29.67,13,2,13,0.00
2013-9-22,80,68,58,56,52,45,87,59,29,29.70,29.37,28,4,29,0.22
2013-9-23,74,62,45,41,38,32,81,43,23,29.81,29.71,14,2,15,0.30
2013-9-24,77,66,47,46,42,37,81,45,26,30.05,29.83,9,1,9,0.00
2013-9-25,84,67,47,48,42,36,89,47,21,29.83,29.52,19,2,19,0.00
2013-9-26,83,68,52,46,40,31,73,40,18,29.64,29.49,19,3,19,0.00
2013-9-27,72,62,47,50,42,33,62,48,41,29.91,29.54,20,3,20,0.00
2013-9-28,70,53,36,34,28,16,80,44,13,30.17,29.91,10,1,10,0.00
2013-9-29,78,58,39,34,29,21,78,40,13,30.18,29.93,8,1,8,0.00
2013-9-30,83,62,43,39,33,24,70,38,13,29.96,29.73,9,0,9,0.00
2013-10-1,84,64,45,36,30,15,71,35,8,29.89,29.74,8,0,8,0.00
2013-10-2,81,63,43,38,31,18,71,36,10,29.90,29.72,9,1,10,0.00
2013-10-3,79,63,45,40,33,24,74,37,14,29.80,29.57,14,2,14,0.00
2013-10-4,65,56,49,35,21,7,50,28,13,30.04,29.65,20,4,20,0.00
2013-10-5,64,51,38,25,20,14,55,31,15,30.23,30.04,13,2,14,0.00
2013-10-6,70,52,35,30,24,17,65,36,14,30.32,30.14,7,0,7,0.00
2013-10-7,76,56,37,32,26,17,70,37,12,30.23,29.98,10,1,10,0.00
2013-10-8,79,62,44,35,31,27,68,35,15,29.98,29.69,13,2,13,0.00
2013-10-9,76,61,44,39,33,26,70,39,16,29.80,29.65,16,2,22,0.00
2013-10-10,71,56,43,48,36,28,78,49,26,29.87,29.54,31,4,32,0.10
2013-10-11,63,49,33,34,32,29,89,56,30,30.04,29.86,13,1,14,0.00
2013-10-12,71,54,38,39,35,32,84,52,24,30.14,29.96,16,2,17,0.00
2013-10-13,78,62,45,44,39,34,75,47,20,30.04,29.76,25,3,26,0.00
2013-10-14,70,59,46,44,30,17,77,38,15,29.92,29.78,16,2,16,0.00
2013-10-15,67,51,36,33,28,23,70,43,27,30.02,29.83,28,5,33,0.01
2013-10-16,63,52,44,36,28,13,67,44,19,30.06,29.94,24,3,24,0.00
2013-10-17,65,48,32,28,22,17,69,39,16,30.14,29.91,7,0,8,0.00
2013-10-18,64,49,33,28,19,10,73,36,13,30.14,29.93,14,1,14,0.00
2013-10-19,66,48,32,30,24,17,83,47,16,30.21,30.01,9,1,9,0.00
2013-10-20,71,53,34,25,20,9,65,31,10,30.05,29.80,14,1,14,0.00
2013-10-21,65,53,41,32,29,19,65,42,22,30.11,29.91,17,1,17,0.00
2013-10-22,69,50,33,31,26,14,81,45,12,30.27,30.10,6,0,6,0.00
2013-10-23,72,52,35,30,27,23,69,41,17,30.20,30.02,10,1,10,0.00
2013-10-24,75,56,39,50,33,27,86,47,19,30.15,29.96,22,1,22,0.06
2013-10-25,67,54,46,52,45,39,92,73,45,30.14,29.96,12,2,13,0.09
2013-10-26,68,52,38,44,40,35,94,66,35,30.27,30.10,7,0,8,0.00
2013-10-27,70,54,38,40,37,32,91,57,26,30.17,29.83,10,1,10,0.00
2013-10-28,71,57,44,42,33,19,83,46,18,29.86,29.72,15,2,15,0.00
2013-10-29,69,59,49,28,25,21,40,28,19,29.89,29.67,23,4,26,0.00
2013-10-30,61,51,40,38,32,24,73,50,32,29.91,29.67,15,2,15,0.00
2013-10-31,57,45,33,31,27,23,79,52,28,30.12,29.91,19,2,19,0.00
2013-11-1,62,49,35,30,26,22,72,45,22,30.23,30.06,12,1,12,0.00
2013-11-2,64,48,32,29,26,20,80,45,20,30.32,30.01,10,1,13,0.00
2013-11-3,68,55,43,35,30,24,59,40,22,30.01,29.65,14,1,14,0.00
2013-11-4,67,54,38,44,36,32,82,53,29,29.85,29.67,17,3,19,0.00
2013-11-5,56,46,35,44,33,17,93,64,41,30.25,29.69,15,2,15,0.15
2013-11-6,55,40,26,21,16,10,74,40,19,30.50,30.25,11,1,11,0.00
2013-11-7,60,43,30,26,23,18,78,48,21,30.54,30.29,8,1,8,0.00
2013-11-8,63,45,29,29,26,21,86,51,22,30.30,30.04,8,1,8,0.00
2013-11-9,68,48,31,29,26,21,81,47,17,30.22,30.10,5,0,5,0.00
2013-11-10,68,49,35,30,27,20,71,45,17,30.30,30.15,8,1,8,0.00
2013-11-11,68,51,35,30,26,20,75,42,16,30.33,30.16,11,1,11,0.00
2013-11-12,58,47,38,36,31,23,77,56,38,30.52,30.32,17,2,17,0.00
2013-11-13,56,44,31,39,35,29,92,73,51,30.50,30.16,10,1,10,0.00
2013-11-14,60,46,36,41,36,30,94,69,37,30.16,29.92,7,0,7,0.00
2013-11-15,61,46,32,46,35,26,93,67,37,29.93,29.66,25,2,25,0.18
2013-11-16,61,50,42,45,38,29,93,66,38,29.81,29.57,9,1,9,0.01
2013-11-17,60,48,36,34,32,30,82,55,35,30.14,29.80,16,2,17,0.00
2013-11-18,56,41,34,32,31,29,85,69,41,30.25,30.12,7,0,7,0.00
2013-11-19,48,46,45,37,33,-100,70,66,64,29.90,29.89,4,-19,4,0.00
2013-11-20,49,44,39,43,38,31,94,79,57,29.95,29.84,8,1,8,0.21
2013-11-21,58,47,41,48,43,37,97,86,58,30.08,29.94,21,1,21,0.28
2013-11-22,41,35,32,37,27,23,86,71,65,30.43,30.05,35,8,35,0.04
2013-11-23,37,34,27,32,24,18,92,70,53,30.51,30.38,33,8,33,0.00
2013-11-24,34,29,23,25,21,14,86,72,58,30.47,30.27,24,4,24,0.00
2013-11-25,47,35,28,31,28,25,92,77,52,30.44,30.23,7,1,11,0.02
2013-11-26,49,35,25,31,27,22,92,74,48,30.57,30.44,6,0,6,0.00
2013-11-27,47,35,24,30,27,22,92,73,48,30.51,30.29,7,1,7,0.00
2013-11-28,50,36,25,28,26,23,92,68,38,30.39,30.27,7,0,7,0.00
2013-11-29,55,38,26,32,28,23,91,70,38,30.47,30.31,5,0,5,0.01
2013-11-30,57,41,29,33,30,26,91,69,39,30.41,30.23,6,0,6,0.00
2013-12-1,50,39,33,33,30,27,86,71,50,30.36,30.25,16,3,16,0.00
2013-12-2,53,39,31,30,28,25,80,64,40,30.29,29.92,9,1,10,0.00
2013-12-3,65,46,30,30,22,12,81,44,13,29.93,29.60,15,2,15,0.00
2013-12-4,61,48,38,31,24,15,67,41,21,29.81,29.49,25,4,25,0.00
2013-12-5,38,28,15,32,24,11,94,86,53,30.14,29.77,10,1,10,0.06
2013-12-6,36,24,13,21,16,10,92,74,41,30.40,30.14,10,1,10,0.12
2013-12-7,34,26,16,30,21,12,88,82,75,30.34,30.01,9,1,10,0.00
2013-12-8,36,30,26,28,18,11,88,60,47,30.13,29.93,16,3,16,0.02
2013-12-9,32,25,15,17,9,1,71,51,29,30.68,30.12,21,3,21,0.00
2013-12-10,35,22,11,10,5,1,71,50,26,30.72,30.51,15,1,15,0.00
2013-12-11,43,27,14,19,13,8,78,57,28,30.73,30.54,9,1,9,0.00
2013-12-12,43,30,21,21,18,12,77,59,40,30.69,30.28,10,1,10,0.00
2013-12-13,48,37,32,32,26,20,89,66,52,30.28,30.04,15,2,15,0.00
2013-12-14,47,36,26,21,19,16,75,52,32,30.51,30.19,12,2,13,0.00
2013-12-15,49,36,23,21,19,16,78,52,30,30.54,30.39,16,2,16,0.00
2013-12-16,56,41,26,24,22,19,79,49,25,30.51,30.34,13,1,13,0.00
2013-12-17,59,42,26,24,22,20,81,49,23,30.50,30.33,9,1,9,0.00
2013-12-18,56,38,25,27,23,20,84,58,29,30.34,29.99,7,0,7,0.00
2013-12-19,58,43,28,28,23,18,83,48,26,29.99,29.70,9,1,9,0.00
2013-12-20,55,41,28,32,25,19,79,55,26,29.81,29.63,11,1,11,0.00
2013-12-21,43,38,34,33,29,25,93,71,52,29.90,29.56,16,3,17,0.15
2013-12-22,46,35,28,26,22,16,72,59,30,30.40,29.90,12,2,12,0.00
2013-12-23,50,35,23,22,19,16,78,54,30,30.60,30.40,8,1,9,0.00
2013-12-24,51,38,24,25,22,19,82,55,31,30.52,30.26,17,1,18,0.00
2013-12-25,49,36,26,23,18,12,75,52,26,30.51,30.37,14,1,14,0.00
2013-12-26,51,34,18,19,16,12,84,52,25,30.56,30.36,10,0,10,0.00
2013-12-27,54,37,27,20,16,13,67,46,22,30.50,30.31,12,1,14,0.00
2013-12-28,50,35,20,21,18,15,83,53,25,30.32,30.02,9,1,10,0.00
2013-12-29,46,38,28,26,22,20,77,54,36,30.27,30.06,12,1,14,0.00
2013-12-30,54,37,23,21,15,7,81,46,17,30.45,30.26,15,1,15,0.00
2013-12-31,53,36,21,20,16,14,78,48,23,30.46,30.24,8,1,9,0.00
2014-1-1,56,40,25,23,18,13,75,46,19,30.37,30.17,18,2,19,0.00
2014-1-2,53,36,22,24,16,10,81,49,17,30.46,30.31,7,0,7,0.00